x

Cape Lookout, Nc (clkn7) Weather Station

8:00am - Sun 28th May 2017 All times are EDT. -4 hours from GMT.

  • Wind
    9mph, 11mph gusts
  • Air Temp 76°f
  • Sea Pressure 1010.6mb
  • Cape Lookout, Nc
  • Cape Lookout, Nc

More Historic Weather Station data

Upgrade to MSW Pro to gain access to the past 30 days of data for over 8000 Wavebouys and Weather Stations around the globe.

Join Pro

Comparision Forecast

View Surf forecast
   
Sun 05/28 8:00am 9 11 mph 1010.6mb 76f
7:00am 7 9 mph 1010.4mb 75f
6:00am 9 11 mph 1010.3mb 74f
5:00am 9 11 mph 1010.3mb 74f
4:00am 9 14 mph 1010.3mb 74f
3:00am 11 15 mph 1010.9mb 75f
2:00am 11 17 mph 1011.7mb 75f
1:00am 9 13 mph 1012.1mb 75f
12:00am 9 14 mph 1012.5mb 76f
Sat 05/27 10:00pm 13 17 mph 1012.5mb 76f
9:00pm 13 17 mph 1012.1mb 76f
8:00pm 11 16 mph 1012.1mb 76f
7:00pm 14 18 mph 1011.5mb 77f
6:00pm 15 20 mph 1012.2mb 77f
5:00pm 14 17 mph 1012.2mb 78f
4:00pm 14 17 mph 1012.9mb 78f
3:00pm 14 17 mph 1013.4mb 78f
2:00pm 13 15 mph 1013.7mb 79f
1:00pm 10 14 mph 1014mb 78f
12:00pm 13 16 mph 1014.3mb 77f
11:00am 11 16 mph 1014.4mb 76f
10:00am 10 14 mph 1014.8mb 76f
9:00am 8 11 mph 1014.8mb 75f
8:00am 7 9 mph 1014.7mb 74f
7:00am 5 6 mph 1014.6mb 74f
6:00am 9 9 mph 1014.4mb 72f
5:00am 8 10 mph 1014.1mb 72f
4:00am 7 8 mph 1014mb 72f
3:00am 7 8 mph 1014.4mb 72f
2:00am 7 8 mph 1014.5mb 72f
1:00am 9 11 mph 1014.7mb 73f
12:00am 10 13 mph 1014.8mb 73f
Fri 05/26 11:00pm 11 15 mph 1014.4mb 73f
10:00pm 13 16 mph 1013.8mb 73f
9:00pm 15 21 mph 1012.9mb 73f
8:00pm 13 17 mph 1012.4mb 74f
7:00pm 15 18 mph 1012mb 75f
6:00pm 15 20 mph 1011.7mb 75f
5:00pm 14 20 mph 1011.5mb 76f
4:00pm 17 23 mph 1011.5mb 76f
3:00pm 13 16 mph 1011.9mb 76f
2:00pm 14 18 mph 1012.1mb 76f
1:00pm 16 21 mph 1012.4mb 76f
12:00pm 18 22 mph 1012.8mb 75f
11:00am 16 20 mph 1012.6mb 74f
10:00am 18 22 mph 1012.6mb 72f
9:00am 20 24 mph 1012.7mb 71f
8:00am 21 24 mph 1012.3mb 70f
7:00am 23 25 mph 1011.9mb 69f
6:00am 24 29 mph 1011.1mb 69f
5:00am 25 33 mph 1010.2mb 70f
4:00am 24 31 mph 1009.5mb 71f
3:00am 28 33 mph 1009mb 71f
2:00am 26 32 mph 1008.8mb 72f
1:00am 24 30 mph 1008.6mb 72f
12:00am 29 33 mph 1008.1mb 72f
Thu 05/25 11:00pm 25 32 mph 1007.5mb 72f
10:00pm 28 38 mph 1006.5mb 72f
9:00pm 22 32 mph 1005.4mb 71f
8:00pm 21 30 mph 1004.4mb 71f
7:00pm 17 26 mph 1003.4mb 71f
6:00pm 18 23 mph 1003.6mb 68f
5:00pm 33 40 mph 1004.3mb 63f
4:00pm 23 30 mph 1002.2mb 74f
3:00pm 24 32 mph 1002.3mb 75f
2:00pm 21 30 mph 1002.5mb 76f
1:00pm 23 31 mph 1002.7mb 75f
12:00pm 18 24 mph 1002.8mb 76f
11:00am 21 29 mph 1003mb 76f
10:00am 21 28 mph 1002.5mb 76f
9:00am 15 18 mph 1002.2mb 76f
8:00am 17 22 mph 1001.9mb 75f
7:00am 16 22 mph 1001.4mb 75f
6:00am 15 21 mph 1000.9mb 75f
5:00am 18 22 mph 1000.6mb 75f
4:00am 23 28 mph 1000.2mb 73f
3:00am 24 28 mph 1000.6mb 74f
2:00am 26 32 mph 1001.3mb 74f
1:00am 22 28 mph 1001.9mb 74f
12:00am 26 29 mph 1003.3mb 73f
Wed 05/24 11:00pm 24 26 mph 1003.7mb 73f
10:00pm 21 23 mph 1004mb 73f
9:00pm 17 22 mph 1004.6mb 73f
8:00pm 14 21 mph 1005.3mb 73f
7:00pm 14 16 mph 1004.4mb 76f
6:00pm 11 15 mph 1004.6mb 77f
5:00pm 9 11 mph 1003.9mb 79f
4:00pm 11 15 mph 1005mb 77f
3:00pm 9 11 mph 1005.5mb 75f
2:00pm 7 8 mph 1005.3mb 74f